createdAt,value
2023-03-27T00:01:26.040Z,100.00
2023-03-27T00:03:53.743Z,100.00
2023-03-27T00:06:21.326Z,100.00
2023-03-27T00:08:51.415Z,100.00
2023-03-27T00:11:19.646Z,100.00
2023-03-27T00:13:49.439Z,100.00
2023-03-27T00:16:17.528Z,100.00
2023-03-27T00:18:45.232Z,100.00
2023-03-27T00:21:12.121Z,100.00
2023-03-27T00:23:38.834Z,100.00
2023-03-27T00:26:05.845Z,100.00
2023-03-27T00:28:32.887Z,100.00
2023-03-27T00:31:00.446Z,100.00
2023-03-27T00:33:27.979Z,100.00
2023-03-27T00:35:54.815Z,100.00
2023-03-27T00:38:21.916Z,100.00
2023-03-27T00:40:51.052Z,100.00
2023-03-27T00:43:23.870Z,100.00
2023-03-27T00:45:56.871Z,100.00
2023-03-27T00:48:25.816Z,100.00
2023-03-27T00:50:53.925Z,100.00
2023-03-27T00:53:26.949Z,99.08
2023-03-27T00:55:56.728Z,99.98
2023-03-27T00:58:29.558Z,100.00
2023-03-27T01:00:57.713Z,100.00
2023-03-27T01:03:28.219Z,100.00
2023-03-27T01:05:56.226Z,99.88
2023-03-27T01:08:24.786Z,100.00
2023-03-27T01:11:21.026Z,99.93
2023-03-27T01:14:01.206Z,99.84
2023-03-27T01:17:02.124Z,99.86
2023-03-27T01:20:10.972Z,98.34
2023-03-27T01:22:52.919Z,99.87
2023-03-27T01:25:38.522Z,98.76
2023-03-27T01:28:24.244Z,99.69
2023-03-27T01:30:54.341Z,99.30
2023-03-27T01:33:35.840Z,99.26
2023-03-27T01:36:50.918Z,97.95
2023-03-27T01:39:31.846Z,98.31
2023-03-27T01:42:38.589Z,98.02
2023-03-27T01:45:28.716Z,98.41
2023-03-27T01:48:11.292Z,98.37
2023-03-27T01:50:46.202Z,97.59
2023-03-27T01:53:30.944Z,98.48
2023-03-27T01:56:07.381Z,97.28
2023-03-27T01:58:40.716Z,98.29
2023-03-27T02:01:09.321Z,97.33
2023-03-27T02:03:40.401Z,96.08
2023-03-27T02:06:11.774Z,97.04
2023-03-27T02:09:09.007Z,98.01
2023-03-27T02:11:44.108Z,96.62
2023-03-27T02:14:19.811Z,97.43
2023-03-27T02:16:51.726Z,97.97
2023-03-27T02:19:23.585Z,97.11
2023-03-27T02:21:50.296Z,96.47
2023-03-27T02:24:18.113Z,96.93
2023-03-27T02:26:46.017Z,97.40
2023-03-27T02:29:32.144Z,97.02
2023-03-27T02:32:18.551Z,96.45
2023-03-27T02:35:23.189Z,96.88
2023-03-27T02:37:59.766Z,95.61
2023-03-27T02:40:52.422Z,96.62
2023-03-27T02:43:29.639Z,98.05
2023-03-27T02:46:18.921Z,97.32
2023-03-27T02:48:48.825Z,97.04
2023-03-27T02:51:36.702Z,95.49
2023-03-27T02:54:06.061Z,95.61
2023-03-27T02:56:38.876Z,96.30
2023-03-27T02:59:16.458Z,96.80
2023-03-27T03:01:45.696Z,97.12
2023-03-27T03:04:18.469Z,96.71
2023-03-27T03:06:45.275Z,97.05
2023-03-27T03:09:15.197Z,95.52
2023-03-27T03:11:51.738Z,95.46
2023-03-27T03:14:25.122Z,95.85
2023-03-27T03:16:52.039Z,94.23
2023-03-27T03:19:18.808Z,92.31
2023-03-27T03:21:49.948Z,93.09
2023-03-27T03:24:17.897Z,91.93
2023-03-27T03:26:50.443Z,91.83
2023-03-27T03:29:21.536Z,91.53
2023-03-27T03:31:49.979Z,92.33
2023-03-27T03:34:19.075Z,90.26
2023-03-27T03:36:50.112Z,88.61
2023-03-27T03:39:18.539Z,90.31
2023-03-27T03:41:45.602Z,86.47
2023-03-27T03:44:12.539Z,86.60
2023-03-27T03:46:39.504Z,86.95
2023-03-27T03:49:07.128Z,86.76
2023-03-27T03:51:35.640Z,86.77
2023-03-27T03:54:03.096Z,85.04
2023-03-27T03:56:30.871Z,85.66
2023-03-27T03:58:58.130Z,86.11
2023-03-27T04:01:26.442Z,87.37
2023-03-27T04:03:53.360Z,84.33
2023-03-27T04:06:25.830Z,83.23
2023-03-27T04:08:53.437Z,84.03
2023-03-27T04:11:20.594Z,83.82
2023-03-27T04:13:47.393Z,83.82
2023-03-27T04:16:14.139Z,81.98
2023-03-27T04:18:41.714Z,81.19
2023-03-27T04:21:15.007Z,83.71
2023-03-27T04:23:42.616Z,83.65
2023-03-27T04:26:12.607Z,83.30
2023-03-27T04:28:41.178Z,83.45
2023-03-27T04:31:11.519Z,82.54
2023-03-27T04:33:39.956Z,79.77
2023-03-27T04:36:08.281Z,82.56
2023-03-27T04:38:37.201Z,81.55
2023-03-27T04:41:05.065Z,80.69
2023-03-27T04:43:31.997Z,79.48
2023-03-27T04:45:59.058Z,81.47
2023-03-27T04:48:26.938Z,78.25
2023-03-27T04:50:53.622Z,78.67
2023-03-27T04:53:23.729Z,79.69
2023-03-27T04:55:53.348Z,78.81
2023-03-27T04:58:20.099Z,78.99
2023-03-27T05:00:50.868Z,80.91
2023-03-27T05:03:21.185Z,81.44
2023-03-27T05:05:49.960Z,82.02
2023-03-27T05:08:20.902Z,83.38
2023-03-27T05:10:47.857Z,82.62
2023-03-27T05:13:14.821Z,81.43
2023-03-27T05:15:42.061Z,83.51
2023-03-27T05:18:09.457Z,82.33
2023-03-27T05:20:36.901Z,81.47
2023-03-27T05:23:04.354Z,83.71
2023-03-27T05:25:32.970Z,85.23
2023-03-27T05:28:01.011Z,83.56
2023-03-27T05:30:28.849Z,83.60
2023-03-27T05:32:59.659Z,83.55
2023-03-27T05:35:28.722Z,82.65
2023-03-27T05:37:57.554Z,84.07
2023-03-27T05:40:25.872Z,85.18
2023-03-27T05:42:53.970Z,84.64
2023-03-27T05:45:21.728Z,86.71
2023-03-27T05:47:56.308Z,85.19
2023-03-27T05:50:25.664Z,84.83
2023-03-27T05:52:57.082Z,85.76
2023-03-27T05:55:27.427Z,87.10
2023-03-27T05:57:55.124Z,86.17
2023-03-27T06:00:28.080Z,82.71
2023-03-27T06:02:56.759Z,79.73
2023-03-27T06:05:24.203Z,79.86
2023-03-27T06:07:52.499Z,81.73
2023-03-27T06:10:21.025Z,82.56
2023-03-27T06:12:49.190Z,79.39
2023-03-27T06:15:16.301Z,81.45
2023-03-27T06:17:48.182Z,82.87
2023-03-27T06:20:15.755Z,84.03
2023-03-27T06:22:45.578Z,85.21
2023-03-27T06:25:12.602Z,83.73
2023-03-27T06:27:42.342Z,84.19
2023-03-27T06:30:11.422Z,83.45
2023-03-27T06:32:43.930Z,84.37
2023-03-27T06:35:10.745Z,84.43
2023-03-27T06:37:38.577Z,84.25
2023-03-27T06:40:10.170Z,85.00
2023-03-27T06:42:37.386Z,85.79
2023-03-27T06:45:05.704Z,85.69
2023-03-27T06:47:44.420Z,86.76
2023-03-27T06:50:24.144Z,84.80
2023-03-27T06:52:51.161Z,83.96
2023-03-27T06:55:20.539Z,83.99
2023-03-27T06:57:49.264Z,84.50
2023-03-27T07:00:22.936Z,84.89
2023-03-27T07:02:54.035Z,84.14
2023-03-27T07:05:21.396Z,85.36
2023-03-27T07:07:49.419Z,84.73
2023-03-27T07:10:16.932Z,84.26
2023-03-27T07:12:48.461Z,86.56
2023-03-27T07:15:15.709Z,85.46
2023-03-27T07:17:49.108Z,85.30
2023-03-27T07:20:17.380Z,85.67
2023-03-27T07:22:54.986Z,85.46
2023-03-27T07:25:28.160Z,85.03
2023-03-27T07:28:00.559Z,84.80
2023-03-27T07:30:28.861Z,86.15
2023-03-27T07:32:55.908Z,84.80
2023-03-27T07:35:22.999Z,84.66
2023-03-27T07:37:50.060Z,86.43
2023-03-27T07:40:29.546Z,83.97
2023-03-27T07:43:07.795Z,84.18
2023-03-27T07:45:35.812Z,82.88
2023-03-27T07:48:16.811Z,82.80
2023-03-27T07:50:45.636Z,82.47
2023-03-27T07:53:34.021Z,82.27
2023-03-27T07:56:01.317Z,80.35
2023-03-27T07:58:28.246Z,80.97
2023-03-27T08:01:03.458Z,79.78
2023-03-27T08:03:31.710Z,79.25
2023-03-27T08:06:00.104Z,79.72
2023-03-27T08:08:29.727Z,80.56
2023-03-27T08:10:57.785Z,79.39
2023-03-27T08:13:25.331Z,79.06
2023-03-27T08:15:53.138Z,79.50
2023-03-27T08:18:19.926Z,79.04
2023-03-27T08:20:54.803Z,77.35
2023-03-27T08:23:28.910Z,79.27
2023-03-27T08:26:02.994Z,79.82
2023-03-27T08:28:35.274Z,80.56
2023-03-27T08:31:12.677Z,80.07
2023-03-27T08:33:40.300Z,80.31
2023-03-27T08:36:10.282Z,79.51
2023-03-27T08:38:40.266Z,78.07
2023-03-27T08:41:20.141Z,77.38
2023-03-27T08:43:47.592Z,79.70
2023-03-27T08:46:26.407Z,77.81
2023-03-27T08:49:20.910Z,77.45
2023-03-27T08:51:59.449Z,77.02
2023-03-27T08:54:31.396Z,77.25
2023-03-27T08:56:59.925Z,77.34
2023-03-27T08:59:31.760Z,77.69
2023-03-27T09:02:31.187Z,77.91
2023-03-27T09:05:10.278Z,76.11
2023-03-27T09:08:10.671Z,74.56
2023-03-27T09:10:46.290Z,78.32
2023-03-27T09:13:35.425Z,77.90
2023-03-27T09:16:13.853Z,78.79
2023-03-27T09:19:07.379Z,80.36
2023-03-27T09:21:50.844Z,79.32
2023-03-27T09:25:09.409Z,79.32
2023-03-27T09:27:40.046Z,75.99
2023-03-27T09:30:23.894Z,72.95
2023-03-27T09:32:58.763Z,72.62
2023-03-27T09:35:27.048Z,69.05
2023-03-27T09:38:02.419Z,70.96
2023-03-27T09:40:44.984Z,69.79
2023-03-27T09:43:18.343Z,71.82
2023-03-27T09:45:48.221Z,72.98
2023-03-27T09:48:58.799Z,72.96
2023-03-27T09:51:51.838Z,72.43
2023-03-27T09:54:21.642Z,70.73
2023-03-27T09:56:59.170Z,66.53
2023-03-27T09:59:33.711Z,66.04
2023-03-27T10:02:11.180Z,64.70
2023-03-27T10:04:39.142Z,65.48
2023-03-27T10:07:25.030Z,61.49
2023-03-27T10:10:34.922Z,62.16
2023-03-27T10:13:04.898Z,63.23
2023-03-27T10:15:39.114Z,61.07
2023-03-27T10:18:07.716Z,59.23
2023-03-27T10:20:41.799Z,62.16
2023-03-27T10:23:09.907Z,62.38
2023-03-27T10:25:39.694Z,65.74
2023-03-27T10:28:22.991Z,67.21
2023-03-27T10:31:15.050Z,67.03
2023-03-27T10:33:42.737Z,62.28
2023-03-27T10:36:13.751Z,62.75
2023-03-27T10:38:43.358Z,62.86
2023-03-27T10:41:29.077Z,63.85
2023-03-27T10:43:59.649Z,61.94
2023-03-27T10:46:30.091Z,62.66
2023-03-27T10:49:26.510Z,63.75
2023-03-27T10:52:26.394Z,64.73
2023-03-27T10:55:09.332Z,63.02
2023-03-27T10:57:38.671Z,64.75
2023-03-27T11:00:35.256Z,64.22
2023-03-27T11:03:25.311Z,61.16
2023-03-27T11:05:55.180Z,61.45
2023-03-27T11:08:53.483Z,60.54
2023-03-27T11:11:26.362Z,63.73
2023-03-27T11:13:55.498Z,64.43
2023-03-27T11:16:49.503Z,66.00
2023-03-27T11:19:32.263Z,65.86
2023-03-27T11:22:35.264Z,66.09
2023-03-27T11:25:31.267Z,67.10
2023-03-27T11:28:43.968Z,64.32
2023-03-27T11:31:47.559Z,66.20
2023-03-27T11:34:45.806Z,79.00
2023-03-27T11:37:20.068Z,87.06
2023-03-27T11:39:49.770Z,87.93
2023-03-27T11:42:23.681Z,88.31
2023-03-27T11:44:52.393Z,89.40
2023-03-27T11:48:11.135Z,89.74
2023-03-27T11:51:12.667Z,87.05
2023-03-27T11:53:58.641Z,79.94
2023-03-27T11:56:32.506Z,77.29
2023-03-27T11:59:31.743Z,78.47
2023-03-27T12:02:39.279Z,78.02
2023-03-27T12:05:33.523Z,80.74
2023-03-27T12:08:22.764Z,79.08
2023-03-27T12:10:51.374Z,83.99
2023-03-27T12:14:02.272Z,92.79
2023-03-27T12:16:59.440Z,98.61
2023-03-27T12:20:06.290Z,100.00
2023-03-27T12:23:17.564Z,100.00
2023-03-27T12:26:13.602Z,100.00
2023-03-27T12:28:42.663Z,100.00
2023-03-27T12:31:49.606Z,100.00
2023-03-27T12:34:32.351Z,100.00
2023-03-27T12:36:59.758Z,100.00
2023-03-27T12:39:27.701Z,100.00
2023-03-27T12:41:54.458Z,100.00
2023-03-27T12:44:29.911Z,99.53
2023-03-27T12:47:24.769Z,98.29
2023-03-27T12:50:14.633Z,93.84
2023-03-27T12:52:46.050Z,93.06
2023-03-27T12:55:39.510Z,88.04
2023-03-27T12:58:06.527Z,91.73
2023-03-27T13:00:33.522Z,90.93
2023-03-27T13:03:25.178Z,91.02
2023-03-27T13:06:07.447Z,90.06
2023-03-27T13:08:53.913Z,92.19
2023-03-27T13:11:48.505Z,86.94
2023-03-27T13:15:17.379Z,85.67
2023-03-27T13:18:32.626Z,86.23
2023-03-27T13:21:30.682Z,84.09
2023-03-27T13:24:37.481Z,82.21
2023-03-27T13:27:34.937Z,82.29
2023-03-27T13:30:05.096Z,82.97
2023-03-27T13:32:43.429Z,83.85
2023-03-27T13:35:34.284Z,84.43
2023-03-27T13:38:01.367Z,85.91
2023-03-27T13:40:34.980Z,84.01
2023-03-27T13:43:12.924Z,82.39
2023-03-27T13:45:48.667Z,82.51
2023-03-27T13:48:37.387Z,85.53
2023-03-27T13:51:17.957Z,84.89
2023-03-27T13:54:13.781Z,82.73
2023-03-27T13:57:04.901Z,84.32
2023-03-27T13:59:54.313Z,82.62
2023-03-27T14:02:47.421Z,76.93
2023-03-27T14:06:11.376Z,77.17
2023-03-27T14:09:06.267Z,76.28
2023-03-27T14:12:07.050Z,72.56
2023-03-27T14:14:47.629Z,71.24
2023-03-27T14:17:32.459Z,67.86
2023-03-27T14:20:22.424Z,70.39
2023-03-27T14:22:57.204Z,65.11
2023-03-27T14:25:34.440Z,67.91
2023-03-27T14:28:01.783Z,69.12
2023-03-27T14:30:45.424Z,70.03
2023-03-27T14:33:22.676Z,75.00
2023-03-27T14:36:17.129Z,77.07
2023-03-27T14:38:44.904Z,81.36
2023-03-27T14:41:20.266Z,84.56
2023-03-27T14:43:49.244Z,87.24
2023-03-27T14:46:18.967Z,90.71
2023-03-27T14:48:49.283Z,92.50
2023-03-27T14:51:21.684Z,92.41
2023-03-27T14:53:50.211Z,92.35
2023-03-27T14:56:38.462Z,93.17
2023-03-27T14:59:15.545Z,92.15
2023-03-27T15:01:45.756Z,92.87
2023-03-27T15:04:14.030Z,92.68
2023-03-27T15:06:42.260Z,93.10
2023-03-27T15:09:19.525Z,88.25
2023-03-27T15:11:55.180Z,84.06
2023-03-27T15:14:27.705Z,84.64
2023-03-27T15:17:07.130Z,83.51
2023-03-27T15:19:43.556Z,82.09
2023-03-27T15:22:36.545Z,82.71
2023-03-27T15:25:07.690Z,82.14
2023-03-27T15:27:36.352Z,81.33
2023-03-27T15:30:08.406Z,81.48
2023-03-27T15:32:44.867Z,80.57
2023-03-27T15:35:29.228Z,77.30
2023-03-27T15:37:57.628Z,78.67
2023-03-27T15:40:41.067Z,79.32
2023-03-27T15:43:22.148Z,76.84
2023-03-27T15:46:11.144Z,79.39
2023-03-27T15:48:41.587Z,78.24
2023-03-27T15:51:27.504Z,78.17
2023-03-27T15:54:18.516Z,78.37
2023-03-27T15:57:10.966Z,77.34
2023-03-27T15:59:52.212Z,74.71
2023-03-27T16:02:23.034Z,77.93
2023-03-27T16:04:58.079Z,75.66
2023-03-27T16:07:46.517Z,76.07
2023-03-27T16:10:15.722Z,73.71
2023-03-27T16:12:57.354Z,75.40
2023-03-27T16:15:38.976Z,76.32
2023-03-27T16:18:19.026Z,75.37
2023-03-27T16:20:46.184Z,75.68
2023-03-27T16:23:12.983Z,77.11
2023-03-27T16:25:42.293Z,77.40
2023-03-27T16:28:10.169Z,77.80
2023-03-27T16:33:36.960Z,90.25
2023-03-27T16:36:06.115Z,93.63
2023-03-27T16:38:35.662Z,94.86
2023-03-27T16:41:02.765Z,95.02
2023-03-27T16:43:29.541Z,94.72
2023-03-27T16:45:57.784Z,94.24
2023-03-27T16:48:25.019Z,94.16
2023-03-27T16:50:52.297Z,91.98
2023-03-27T16:53:19.145Z,91.85
2023-03-27T16:55:46.695Z,92.96
2023-03-27T16:58:13.940Z,90.86
2023-03-27T17:00:41.128Z,89.64
2023-03-27T17:03:08.743Z,88.22
2023-03-27T17:05:36.522Z,89.16
2023-03-27T17:08:06.032Z,89.12
2023-03-27T17:10:35.512Z,87.00
2023-03-27T17:13:03.181Z,85.08
2023-03-27T17:15:39.290Z,85.00
2023-03-27T17:18:09.151Z,83.13
2023-03-27T17:20:37.977Z,82.75
2023-03-27T17:23:08.016Z,83.36
2023-03-27T17:25:46.510Z,81.45
2023-03-27T17:28:22.046Z,84.44
2023-03-27T17:31:00.922Z,83.87
2023-03-27T17:33:34.779Z,82.68
2023-03-27T17:36:08.993Z,82.82
2023-03-27T17:38:42.511Z,82.26
2023-03-27T17:41:17.542Z,83.56
2023-03-27T17:43:46.713Z,84.11
2023-03-27T17:46:14.687Z,84.04
2023-03-27T17:48:43.400Z,85.07
2023-03-27T17:51:11.235Z,86.14
2023-03-27T17:53:43.521Z,86.10
2023-03-27T17:56:13.381Z,86.57
2023-03-27T17:58:40.182Z,85.85
2023-03-27T18:01:18.610Z,86.86
2023-03-27T18:03:46.621Z,87.43
2023-03-27T18:06:14.987Z,86.29
2023-03-27T18:08:42.798Z,86.67
2023-03-27T18:11:12.474Z,87.81
2023-03-27T18:13:39.484Z,88.85
2023-03-27T18:16:11.011Z,89.87
2023-03-27T18:18:39.369Z,89.03
2023-03-27T18:21:07.110Z,89.01
2023-03-27T18:23:35.322Z,88.47
2023-03-27T18:26:06.721Z,89.36
2023-03-27T18:28:34.218Z,90.16
2023-03-27T18:31:04.106Z,90.07
2023-03-27T18:33:31.366Z,90.12
2023-03-27T18:35:58.756Z,90.43
2023-03-27T18:38:27.215Z,91.29
2023-03-27T18:40:56.456Z,92.17
2023-03-27T18:43:24.012Z,91.50
2023-03-27T18:45:58.970Z,91.50
2023-03-27T18:48:26.690Z,92.56
2023-03-27T18:50:58.287Z,93.32
2023-03-27T18:53:25.714Z,93.54
2023-03-27T18:55:54.111Z,94.22
2023-03-27T18:58:22.022Z,95.13
2023-03-27T19:00:49.015Z,95.05
2023-03-27T19:03:20.310Z,95.12
2023-03-27T19:05:48.269Z,95.45
2023-03-27T19:08:16.011Z,95.57
2023-03-27T19:10:43.115Z,95.70
2023-03-27T19:13:10.341Z,96.35
2023-03-27T19:15:40.613Z,95.73
2023-03-27T19:18:07.913Z,96.98
2023-03-27T19:20:35.086Z,97.65
2023-03-27T19:23:02.014Z,96.81
2023-03-27T19:25:34.046Z,96.47
2023-03-27T19:28:01.878Z,96.67
2023-03-27T19:30:29.320Z,98.14
2023-03-27T19:32:58.393Z,97.53
2023-03-27T19:35:26.163Z,98.15
2023-03-27T19:37:54.554Z,98.55
2023-03-27T19:40:21.719Z,98.69
2023-03-27T19:42:48.626Z,98.52
2023-03-27T19:45:15.673Z,98.76
2023-03-27T19:47:42.735Z,98.46
2023-03-27T19:50:09.806Z,98.54
2023-03-27T19:52:36.917Z,98.63
2023-03-27T19:55:04.271Z,99.15
2023-03-27T19:57:31.129Z,99.01
2023-03-27T19:59:57.907Z,98.34
2023-03-27T20:02:24.968Z,99.89
2023-03-27T20:04:51.984Z,99.95
2023-03-27T20:07:18.725Z,99.09
2023-03-27T20:09:45.710Z,99.12
2023-03-27T20:12:12.759Z,97.48
2023-03-27T20:14:39.786Z,98.27
2023-03-27T20:17:12.250Z,97.97
2023-03-27T20:19:49.118Z,98.06
2023-03-27T20:22:20.975Z,97.19
2023-03-27T20:24:48.632Z,96.97
2023-03-27T20:27:20.341Z,95.80
2023-03-27T20:29:48.752Z,94.22
2023-03-27T20:32:15.740Z,94.27
2023-03-27T20:34:42.899Z,95.11
2023-03-27T20:37:12.228Z,94.26
2023-03-27T20:39:44.891Z,95.33
2023-03-27T20:42:17.158Z,93.72
2023-03-27T20:44:45.381Z,93.08
2023-03-27T20:47:13.098Z,92.82
2023-03-27T20:49:41.745Z,92.45
2023-03-27T20:52:14.589Z,92.82
2023-03-27T20:54:41.682Z,92.71
2023-03-27T20:57:08.695Z,92.99
2023-03-27T20:59:35.883Z,93.54
2023-03-27T21:02:03.829Z,92.80
2023-03-27T21:04:31.782Z,93.37
2023-03-27T21:06:58.806Z,93.09
2023-03-27T21:09:27.212Z,94.01
2023-03-27T21:11:55.430Z,94.43
2023-03-27T21:14:22.586Z,95.31
2023-03-27T21:16:49.433Z,94.37
2023-03-27T21:19:17.398Z,95.18
2023-03-27T21:21:44.475Z,95.96
2023-03-27T21:24:11.479Z,96.86
2023-03-27T21:26:38.306Z,96.10
2023-03-27T21:29:05.343Z,97.05
2023-03-27T21:31:32.229Z,97.45
2023-03-27T21:33:59.173Z,97.19
2023-03-27T21:36:28.802Z,97.05
2023-03-27T21:38:59.366Z,97.31
2023-03-27T21:41:26.505Z,97.26
2023-03-27T21:43:53.292Z,97.80
2023-03-27T21:46:20.181Z,98.90
2023-03-27T21:48:50.593Z,98.67
2023-03-27T21:51:17.829Z,98.86
2023-03-27T21:53:46.295Z,98.79
2023-03-27T21:56:14.005Z,97.84
2023-03-27T21:58:40.759Z,98.52
2023-03-27T22:01:07.766Z,98.93
2023-03-27T22:03:34.531Z,99.20
2023-03-27T22:06:11.790Z,99.48
2023-03-27T22:08:41.577Z,98.78
2023-03-27T22:11:08.918Z,98.25
2023-03-27T22:13:36.858Z,98.59
2023-03-27T22:16:11.156Z,98.71
2023-03-27T22:18:37.969Z,98.78
2023-03-27T22:21:19.552Z,99.30
2023-03-27T22:23:46.978Z,99.15
2023-03-27T22:26:13.851Z,98.84
2023-03-27T22:28:40.696Z,99.13
2023-03-27T22:31:07.997Z,99.22
2023-03-27T22:33:35.762Z,99.56
2023-03-27T22:36:03.310Z,98.64
2023-03-27T22:38:31.765Z,99.07
2023-03-27T22:40:59.157Z,99.11
2023-03-27T22:43:28.561Z,100.00
2023-03-27T22:45:55.691Z,98.54
2023-03-27T22:48:22.515Z,98.79
2023-03-27T22:50:56.326Z,97.88
2023-03-27T22:53:24.365Z,98.75
2023-03-27T22:55:52.624Z,98.52
2023-03-27T22:58:19.994Z,98.36
2023-03-27T23:00:48.234Z,98.36
2023-03-27T23:03:16.073Z,98.07
2023-03-27T23:05:45.089Z,97.36
2023-03-27T23:08:11.838Z,96.68
2023-03-27T23:10:38.755Z,96.12
2023-03-27T23:13:05.848Z,95.89
2023-03-27T23:15:32.947Z,95.26
2023-03-27T23:17:59.669Z,95.27
2023-03-27T23:20:27.598Z,95.08
2023-03-27T23:22:54.622Z,95.40
2023-03-27T23:25:21.880Z,95.17
2023-03-27T23:27:48.688Z,95.98
2023-03-27T23:30:15.666Z,95.21
2023-03-27T23:32:42.424Z,95.27
2023-03-27T23:35:12.298Z,94.63
2023-03-27T23:37:39.036Z,94.85
2023-03-27T23:40:07.206Z,94.73
2023-03-27T23:42:33.912Z,94.24
2023-03-27T23:45:01.212Z,95.07
2023-03-27T23:47:28.086Z,96.01
2023-03-27T23:49:54.801Z,95.93
2023-03-27T23:52:21.538Z,95.81
2023-03-27T23:54:48.275Z,96.14
2023-03-27T23:57:15.063Z,97.02
2023-03-27T23:59:42.891Z,97.44
